Hickory Regional Airport Hickory US
ICAO: KHKY
IATA: HKY
Category: Medium
Scheduled Services: No

Elevation: 1190 ft
TransAlt. 18000 ft.

Airport Communications:
ASOS:118.325
CLNC DEL:121.7
ATLANTA CNTR:125.15
CTAF:128.15
GND:121.7
RALEIGH RDO:122.2
TWR:128.15

KHKY Zoom In..

If Map Doesn't Load, Click Here

Runways:

(A) RW 01 length 4400 ft width 150 ft
---- / hdg 14

(B) RW 06 length 6400 ft width 150 ft
---- / hdg 61

(C) RW 19 length 4400 ft width 150 ft
---- / hdg 194

(D) RW 24 length 6400 ft width 150 ft
ILS 108.70 / hdg 241

Location; KHKY
Day. 23 / Time. 07.53 Zulu
* Altimeter: 30.09
* Temperature: 21° c. 69.8°f.
* Wind from: 000° Speed 00 kn.
Dewpoint: 21° c.
Visibility: 10 Statute Miles.
Clouds: Broken 4500 ft.
Clouds: Broken 5500 ft.
Clouds: Broken 7500 ft.

KHKY 230753Z AUTO 00000KT 10SM BKN045 BKN055 BKN075 21/21 A3009 RMK AO2 SLP165 T02110206 $


Wind - Calm.

 
 
jpsmedia.com for Web Design worldairports.se 2018   terms of use